sensor_id;sensor_type;location;lat;lon;timestamp;P1;durP1;ratioP1;P2;durP2;ratioP2
35558;SDS011;21661;50.794;-1.066;2022-10-28T00:00:21;29.73;;;10.10;;
35558;SDS011;21661;50.794;-1.066;2022-10-28T00:02:47;33.38;;;11.38;;
35558;SDS011;21661;50.794;-1.066;2022-10-28T00:05:13;26.63;;;10.98;;
35558;SDS011;21661;50.794;-1.066;2022-10-28T00:07:38;29.80;;;10.63;;
35558;SDS011;21661;50.794;-1.066;2022-10-28T00:10:04;35.53;;;10.93;;
35558;SDS011;21661;50.794;-1.066;2022-10-28T00:12:33;31.08;;;10.30;;
35558;SDS011;21661;50.794;-1.066;2022-10-28T00:15:00;29.42;;;10.23;;
35558;SDS011;21661;50.794;-1.066;2022-10-28T00:17:25;28.20;;;10.02;;
35558;SDS011;21661;50.794;-1.066;2022-10-28T00:19:51;28.10;;;10.70;;
35558;SDS011;21661;50.794;-1.066;2022-10-28T00:22:16;31.42;;;10.57;;
35558;SDS011;21661;50.794;-1.066;2022-10-28T00:24:42;27.65;;;10.45;;
35558;SDS011;21661;50.794;-1.066;2022-10-28T00:27:07;36.58;;;10.85;;
35558;SDS011;21661;50.794;-1.066;2022-10-28T00:29:33;30.65;;;11.80;;
35558;SDS011;21661;50.794;-1.066;2022-10-28T00:31:58;30.38;;;11.18;;
35558;SDS011;21661;50.794;-1.066;2022-10-28T00:34:24;30.35;;;10.65;;
35558;SDS011;21661;50.794;-1.066;2022-10-28T00:36:50;26.88;;;11.13;;
35558;SDS011;21661;50.794;-1.066;2022-10-28T00:39:16;26.98;;;10.75;;
35558;SDS011;21661;50.794;-1.066;2022-10-28T00:41:45;34.85;;;11.27;;
35558;SDS011;21661;50.794;-1.066;2022-10-28T00:47:09;24.13;;;9.95;;
35558;SDS011;21661;50.794;-1.066;2022-10-28T00:50:15;24.02;;;10.20;;
35558;SDS011;21661;50.794;-1.066;2022-10-28T00:52:59;26.52;;;11.35;;
35558;SDS011;21661;50.794;-1.066;2022-10-28T00:55:27;31.83;;;11.05;;
35558;SDS011;21661;50.794;-1.066;2022-10-28T00:57:54;27.67;;;10.63;;
35558;SDS011;21661;50.794;-1.066;2022-10-28T01:00:21;30.48;;;10.98;;
35558;SDS011;21661;50.794;-1.066;2022-10-28T01:02:48;30.35;;;11.07;;
35558;SDS011;21661;50.794;-1.066;2022-10-28T01:05:23;33.47;;;10.55;;
35558;SDS011;21661;50.794;-1.066;2022-10-28T01:07:51;30.70;;;10.98;;
35558;SDS011;21661;50.794;-1.066;2022-10-28T01:10:21;31.58;;;10.50;;
35558;SDS011;21661;50.794;-1.066;2022-10-28T01:13:18;32.15;;;11.35;;
35558;SDS011;21661;50.794;-1.066;2022-10-28T01:32:15;24.15;;;9.52;;
35558;SDS011;21661;50.794;-1.066;2022-10-28T01:37:55;30.23;;;10.55;;
35558;SDS011;21661;50.794;-1.066;2022-10-28T01:40:43;29.80;;;9.60;;
35558;SDS011;21661;50.794;-1.066;2022-10-28T01:46:30;31.15;;;10.10;;
35558;SDS011;21661;50.794;-1.066;2022-10-28T01:51:40;31.33;;;11.10;;
35558;SDS011;21661;50.794;-1.066;2022-10-28T01:54:11;26.45;;;10.27;;
35558;SDS011;21661;50.794;-1.066;2022-10-28T01:56:40;33.97;;;10.30;;
35558;SDS011;21661;50.794;-1.066;2022-10-28T01:59:21;33.72;;;11.48;;
35558;SDS011;21661;50.794;-1.066;2022-10-28T02:01:49;26.13;;;10.90;;
35558;SDS011;21661;50.794;-1.066;2022-10-28T02:04:15;29.45;;;11.60;;
35558;SDS011;21661;50.794;-1.066;2022-10-28T02:06:41;30.63;;;11.48;;
35558;SDS011;21661;50.794;-1.066;2022-10-28T02:09:24;29.92;;;10.75;;
35558;SDS011;21661;50.794;-1.066;2022-10-28T02:25:59;35.30;;;11.65;;
35558;SDS011;21661;50.794;-1.066;2022-10-28T02:29:07;33.95;;;10.90;;
35558;SDS011;21661;50.794;-1.066;2022-10-28T02:31:42;31.33;;;11.23;;
35558;SDS011;21661;50.794;-1.066;2022-10-28T02:34:17;36.13;;;12.02;;
35558;SDS011;21661;50.794;-1.066;2022-10-28T02:36:48;26.45;;;11.65;;
35558;SDS011;21661;50.794;-1.066;2022-10-28T02:39:16;31.30;;;11.98;;
35558;SDS011;21661;50.794;-1.066;2022-10-28T02:41:56;28.48;;;10.55;;
35558;SDS011;21661;50.794;-1.066;2022-10-28T02:44:48;34.28;;;11.35;;
35558;SDS011;21661;50.794;-1.066;2022-10-28T02:47:18;32.67;;;12.60;;
35558;SDS011;21661;50.794;-1.066;2022-10-28T02:49:49;28.70;;;11.97;;
35558;SDS011;21661;50.794;-1.066;2022-10-28T02:52:20;31.77;;;11.63;;
35558;SDS011;21661;50.794;-1.066;2022-10-28T02:54:55;34.60;;;12.30;;
35558;SDS011;21661;50.794;-1.066;2022-10-28T02:57:24;36.83;;;13.18;;
35558;SDS011;21661;50.794;-1.066;2022-10-28T03:02:18;28.55;;;11.68;;
35558;SDS011;21661;50.794;-1.066;2022-10-28T03:04:44;30.77;;;11.07;;
35558;SDS011;21661;50.794;-1.066;2022-10-28T03:07:10;34.35;;;12.05;;
35558;SDS011;21661;50.794;-1.066;2022-10-28T03:09:35;39.63;;;11.77;;
35558;SDS011;21661;50.794;-1.066;2022-10-28T03:12:01;31.35;;;12.00;;
35558;SDS011;21661;50.794;-1.066;2022-10-28T03:14:26;42.75;;;13.23;;
35558;SDS011;21661;50.794;-1.066;2022-10-28T03:16:52;28.80;;;11.65;;
35558;SDS011;21661;50.794;-1.066;2022-10-28T03:19:17;28.20;;;11.48;;
35558;SDS011;21661;50.794;-1.066;2022-10-28T03:21:43;33.25;;;12.15;;
35558;SDS011;21661;50.794;-1.066;2022-10-28T03:24:08;33.22;;;10.90;;
35558;SDS011;21661;50.794;-1.066;2022-10-28T03:26:34;30.00;;;11.35;;
35558;SDS011;21661;50.794;-1.066;2022-10-28T03:29:00;35.60;;;11.70;;
35558;SDS011;21661;50.794;-1.066;2022-10-28T03:31:25;28.83;;;9.75;;
35558;SDS011;21661;50.794;-1.066;2022-10-28T03:33:51;31.35;;;10.50;;
35558;SDS011;21661;50.794;-1.066;2022-10-28T03:36:16;31.85;;;10.82;;
35558;SDS011;21661;50.794;-1.066;2022-10-28T03:38:42;26.63;;;9.80;;
35558;SDS011;21661;50.794;-1.066;2022-10-28T03:41:07;39.35;;;11.65;;
35558;SDS011;21661;50.794;-1.066;2022-10-28T03:43:33;33.75;;;10.07;;
35558;SDS011;21661;50.794;-1.066;2022-10-28T03:45:59;30.48;;;11.40;;
35558;SDS011;21661;50.794;-1.066;2022-10-28T03:48:24;31.15;;;11.23;;
35558;SDS011;21661;50.794;-1.066;2022-10-28T03:50:53;31.50;;;10.77;;
35558;SDS011;21661;50.794;-1.066;2022-10-28T03:53:19;26.50;;;10.32;;
35558;SDS011;21661;50.794;-1.066;2022-10-28T03:55:55;29.15;;;11.05;;
35558;SDS011;21661;50.794;-1.066;2022-10-28T03:58:23;28.67;;;10.13;;
35558;SDS011;21661;50.794;-1.066;2022-10-28T04:00:49;35.03;;;11.15;;
35558;SDS011;21661;50.794;-1.066;2022-10-28T04:03:16;30.88;;;10.55;;
35558;SDS011;21661;50.794;-1.066;2022-10-28T04:05:43;39.67;;;10.77;;
35558;SDS011;21661;50.794;-1.066;2022-10-28T04:08:12;27.27;;;8.70;;
35558;SDS011;21661;50.794;-1.066;2022-10-28T04:10:38;29.27;;;9.23;;
35558;SDS011;21661;50.794;-1.066;2022-10-28T04:13:03;26.30;;;9.38;;
35558;SDS011;21661;50.794;-1.066;2022-10-28T04:15:30;33.85;;;9.60;;
35558;SDS011;21661;50.794;-1.066;2022-10-28T04:17:56;32.63;;;9.57;;
35558;SDS011;21661;50.794;-1.066;2022-10-28T04:20:22;34.78;;;10.20;;
35558;SDS011;21661;50.794;-1.066;2022-10-28T04:22:48;32.45;;;9.60;;
35558;SDS011;21661;50.794;-1.066;2022-10-28T04:25:14;28.08;;;9.25;;
35558;SDS011;21661;50.794;-1.066;2022-10-28T04:27:39;34.33;;;10.63;;
35558;SDS011;21661;50.794;-1.066;2022-10-28T04:30:05;34.88;;;10.55;;
35558;SDS011;21661;50.794;-1.066;2022-10-28T04:32:31;36.78;;;9.80;;
35558;SDS011;21661;50.794;-1.066;2022-10-28T04:34:57;34.80;;;9.88;;
35558;SDS011;21661;50.794;-1.066;2022-10-28T04:37:23;31.98;;;9.70;;
35558;SDS011;21661;50.794;-1.066;2022-10-28T04:39:48;39.05;;;9.95;;
35558;SDS011;21661;50.794;-1.066;2022-10-28T04:42:15;38.80;;;9.23;;
35558;SDS011;21661;50.794;-1.066;2022-10-28T04:44:40;43.83;;;9.60;;
35558;SDS011;21661;50.794;-1.066;2022-10-28T04:47:06;41.53;;;9.38;;
35558;SDS011;21661;50.794;-1.066;2022-10-28T04:49:31;36.15;;;9.32;;
35558;SDS011;21661;50.794;-1.066;2022-10-28T04:51:57;35.45;;;9.65;;
35558;SDS011;21661;50.794;-1.066;2022-10-28T04:54:23;37.92;;;10.23;;
35558;SDS011;21661;50.794;-1.066;2022-10-28T04:56:48;35.25;;;9.48;;
35558;SDS011;21661;50.794;-1.066;2022-10-28T04:59:14;35.95;;;9.93;;
35558;SDS011;21661;50.794;-1.066;2022-10-28T05:01:40;30.95;;;9.43;;
35558;SDS011;21661;50.794;-1.066;2022-10-28T05:04:05;41.15;;;8.93;;
35558;SDS011;21661;50.794;-1.066;2022-10-28T05:06:31;37.00;;;9.90;;
35558;SDS011;21661;50.794;-1.066;2022-10-28T05:08:56;35.00;;;8.63;;
35558;SDS011;21661;50.794;-1.066;2022-10-28T05:11:22;34.55;;;8.88;;
35558;SDS011;21661;50.794;-1.066;2022-10-28T05:13:48;35.47;;;8.75;;
35558;SDS011;21661;50.794;-1.066;2022-10-28T05:16:13;30.23;;;9.07;;
35558;SDS011;21661;50.794;-1.066;2022-10-28T05:18:39;36.38;;;9.85;;
35558;SDS011;21661;50.794;-1.066;2022-10-28T05:21:04;30.90;;;8.80;;
35558;SDS011;21661;50.794;-1.066;2022-10-28T05:23:30;37.97;;;8.77;;
35558;SDS011;21661;50.794;-1.066;2022-10-28T05:25:55;36.10;;;8.32;;
35558;SDS011;21661;50.794;-1.066;2022-10-28T05:28:21;34.35;;;9.10;;
35558;SDS011;21661;50.794;-1.066;2022-10-28T05:30:47;34.72;;;9.40;;
35558;SDS011;21661;50.794;-1.066;2022-10-28T05:33:13;35.38;;;8.23;;
35558;SDS011;21661;50.794;-1.066;2022-10-28T05:35:38;35.55;;;8.18;;
35558;SDS011;21661;50.794;-1.066;2022-10-28T05:38:04;37.53;;;10.90;;
35558;SDS011;21661;50.794;-1.066;2022-10-28T05:40:30;36.45;;;9.80;;
35558;SDS011;21661;50.794;-1.066;2022-10-28T05:42:59;32.90;;;9.77;;
35558;SDS011;21661;50.794;-1.066;2022-10-28T05:45:25;31.80;;;8.55;;
35558;SDS011;21661;50.794;-1.066;2022-10-28T05:47:51;35.47;;;9.38;;
35558;SDS011;21661;50.794;-1.066;2022-10-28T05:50:20;29.27;;;9.00;;
35558;SDS011;21661;50.794;-1.066;2022-10-28T05:52:47;34.63;;;8.45;;
35558;SDS011;21661;50.794;-1.066;2022-10-28T05:55:18;42.13;;;9.02;;
35558;SDS011;21661;50.794;-1.066;2022-10-28T05:57:45;37.15;;;8.68;;
35558;SDS011;21661;50.794;-1.066;2022-10-28T06:00:12;31.88;;;7.55;;
35558;SDS011;21661;50.794;-1.066;2022-10-28T06:02:38;31.05;;;7.93;;
35558;SDS011;21661;50.794;-1.066;2022-10-28T06:05:05;43.53;;;8.25;;
35558;SDS011;21661;50.794;-1.066;2022-10-28T06:07:30;28.45;;;8.05;;
35558;SDS011;21661;50.794;-1.066;2022-10-28T06:09:58;34.28;;;8.18;;
35558;SDS011;21661;50.794;-1.066;2022-10-28T06:12:24;31.45;;;8.23;;
35558;SDS011;21661;50.794;-1.066;2022-10-28T06:14:50;37.30;;;8.57;;
35558;SDS011;21661;50.794;-1.066;2022-10-28T06:17:16;31.67;;;7.88;;
35558;SDS011;21661;50.794;-1.066;2022-10-28T06:19:41;35.85;;;7.35;;
35558;SDS011;21661;50.794;-1.066;2022-10-28T06:22:07;28.65;;;7.30;;
35558;SDS011;21661;50.794;-1.066;2022-10-28T06:24:32;28.65;;;7.30;;
35558;SDS011;21661;50.794;-1.066;2022-10-28T06:26:58;29.08;;;6.82;;
35558;SDS011;21661;50.794;-1.066;2022-10-28T06:29:24;26.50;;;7.82;;
35558;SDS011;21661;50.794;-1.066;2022-10-28T06:31:49;38.33;;;7.60;;
35558;SDS011;21661;50.794;-1.066;2022-10-28T06:34:15;32.28;;;7.60;;
35558;SDS011;21661;50.794;-1.066;2022-10-28T06:36:41;31.70;;;7.82;;
35558;SDS011;21661;50.794;-1.066;2022-10-28T06:39:06;25.55;;;6.80;;
35558;SDS011;21661;50.794;-1.066;2022-10-28T06:41:32;32.05;;;7.63;;
35558;SDS011;21661;50.794;-1.066;2022-10-28T06:43:58;31.08;;;7.13;;
35558;SDS011;21661;50.794;-1.066;2022-10-28T06:46:23;32.53;;;7.40;;
35558;SDS011;21661;50.794;-1.066;2022-10-28T06:48:49;28.52;;;6.65;;
35558;SDS011;21661;50.794;-1.066;2022-10-28T06:51:15;26.60;;;7.20;;
35558;SDS011;21661;50.794;-1.066;2022-10-28T06:53:46;24.35;;;6.63;;
35558;SDS011;21661;50.794;-1.066;2022-10-28T06:56:16;30.92;;;7.47;;
35558;SDS011;21661;50.794;-1.066;2022-10-28T06:58:42;29.67;;;6.25;;
35558;SDS011;21661;50.794;-1.066;2022-10-28T07:01:08;28.85;;;6.03;;
35558;SDS011;21661;50.794;-1.066;2022-10-28T07:03:33;26.33;;;6.40;;
35558;SDS011;21661;50.794;-1.066;2022-10-28T07:05:59;27.25;;;7.25;;
35558;SDS011;21661;50.794;-1.066;2022-10-28T07:08:25;27.35;;;6.32;;
35558;SDS011;21661;50.794;-1.066;2022-10-28T07:11:00;24.75;;;5.68;;
35558;SDS011;21661;50.794;-1.066;2022-10-28T07:13:27;25.13;;;5.78;;
35558;SDS011;21661;50.794;-1.066;2022-10-28T07:15:57;28.90;;;6.45;;
35558;SDS011;21661;50.794;-1.066;2022-10-28T07:18:24;24.02;;;6.68;;
35558;SDS011;21661;50.794;-1.066;2022-10-28T07:20:51;25.92;;;7.05;;
35558;SDS011;21661;50.794;-1.066;2022-10-28T07:23:17;25.88;;;5.68;;
35558;SDS011;21661;50.794;-1.066;2022-10-28T07:25:43;22.38;;;5.28;;
35558;SDS011;21661;50.794;-1.066;2022-10-28T07:28:15;20.83;;;5.68;;
35558;SDS011;21661;50.794;-1.066;2022-10-28T07:30:40;25.70;;;6.05;;
35558;SDS011;21661;50.794;-1.066;2022-10-28T07:33:06;25.25;;;4.10;;
35558;SDS011;21661;50.794;-1.066;2022-10-28T07:35:31;18.67;;;4.45;;
35558;SDS011;21661;50.794;-1.066;2022-10-28T07:37:57;14.80;;;2.50;;
35558;SDS011;21661;50.794;-1.066;2022-10-28T07:40:23;20.40;;;3.38;;
35558;SDS011;21661;50.794;-1.066;2022-10-28T07:42:49;19.35;;;3.13;;
35558;SDS011;21661;50.794;-1.066;2022-10-28T07:45:15;15.23;;;3.03;;
35558;SDS011;21661;50.794;-1.066;2022-10-28T07:47:41;19.55;;;2.65;;
35558;SDS011;21661;50.794;-1.066;2022-10-28T07:50:07;13.18;;;2.20;;
35558;SDS011;21661;50.794;-1.066;2022-10-28T07:52:34;6.70;;;1.50;;
35558;SDS011;21661;50.794;-1.066;2022-10-28T07:55:01;6.53;;;1.40;;
35558;SDS011;21661;50.794;-1.066;2022-10-28T07:57:27;8.02;;;1.42;;
35558;SDS011;21661;50.794;-1.066;2022-10-28T07:59:53;11.38;;;1.70;;
35558;SDS011;21661;50.794;-1.066;2022-10-28T08:02:20;12.43;;;2.20;;
35558;SDS011;21661;50.794;-1.066;2022-10-28T08:04:47;12.57;;;2.38;;
35558;SDS011;21661;50.794;-1.066;2022-10-28T08:07:13;12.93;;;2.00;;
35558;SDS011;21661;50.794;-1.066;2022-10-28T08:09:39;13.32;;;2.47;;
35558;SDS011;21661;50.794;-1.066;2022-10-28T08:12:06;12.85;;;3.00;;
35558;SDS011;21661;50.794;-1.066;2022-10-28T08:14:33;11.07;;;2.05;;
35558;SDS011;21661;50.794;-1.066;2022-10-28T08:16:59;14.88;;;2.75;;
35558;SDS011;21661;50.794;-1.066;2022-10-28T08:19:24;14.40;;;2.25;;
35558;SDS011;21661;50.794;-1.066;2022-10-28T08:21:50;13.80;;;1.90;;
35558;SDS011;21661;50.794;-1.066;2022-10-28T08:24:16;12.05;;;1.90;;
35558;SDS011;21661;50.794;-1.066;2022-10-28T08:26:42;20.42;;;2.58;;
35558;SDS011;21661;50.794;-1.066;2022-10-28T08:29:08;8.85;;;1.80;;
35558;SDS011;21661;50.794;-1.066;2022-10-28T08:31:34;10.00;;;1.90;;
35558;SDS011;21661;50.794;-1.066;2022-10-28T08:34:00;14.35;;;2.00;;
35558;SDS011;21661;50.794;-1.066;2022-10-28T08:36:25;9.05;;;1.63;;
35558;SDS011;21661;50.794;-1.066;2022-10-28T08:38:51;14.15;;;2.00;;
35558;SDS011;21661;50.794;-1.066;2022-10-28T08:49:31;9.75;;;2.33;;
35558;SDS011;21661;50.794;-1.066;2022-10-28T08:55:18;15.27;;;2.85;;
35558;SDS011;21661;50.794;-1.066;2022-10-28T08:57:55;15.43;;;3.28;;
35558;SDS011;21661;50.794;-1.066;2022-10-28T09:00:27;11.43;;;2.15;;
35558;SDS011;21661;50.794;-1.066;2022-10-28T09:05:39;17.55;;;2.65;;
35558;SDS011;21661;50.794;-1.066;2022-10-28T09:08:41;15.10;;;2.67;;
35558;SDS011;21661;50.794;-1.066;2022-10-28T09:11:02;12.77;;;2.72;;
35558;SDS011;21661;50.794;-1.066;2022-10-28T09:19:21;15.82;;;2.35;;
35558;SDS011;21661;50.794;-1.066;2022-10-28T09:22:20;15.73;;;2.65;;
35558;SDS011;21661;50.794;-1.066;2022-10-28T09:27:50;13.85;;;2.92;;
35558;SDS011;21661;50.794;-1.066;2022-10-28T09:36:02;19.58;;;3.13;;
35558;SDS011;21661;50.794;-1.066;2022-10-28T09:38:31;22.52;;;3.35;;
35558;SDS011;21661;50.794;-1.066;2022-10-28T09:43:51;17.63;;;2.55;;
35558;SDS011;21661;50.794;-1.066;2022-10-28T09:46:20;16.65;;;2.50;;
35558;SDS011;21661;50.794;-1.066;2022-10-28T09:48:50;19.10;;;2.58;;
35558;SDS011;21661;50.794;-1.066;2022-10-28T09:51:30;19.48;;;2.83;;
35558;SDS011;21661;50.794;-1.066;2022-10-28T09:54:07;21.88;;;2.85;;
35558;SDS011;21661;50.794;-1.066;2022-10-28T09:56:34;20.88;;;3.15;;
35558;SDS011;21661;50.794;-1.066;2022-10-28T09:59:00;15.10;;;2.95;;
35558;SDS011;21661;50.794;-1.066;2022-10-28T10:01:28;15.45;;;2.25;;
35558;SDS011;21661;50.794;-1.066;2022-10-28T10:03:56;19.52;;;2.58;;
35558;SDS011;21661;50.794;-1.066;2022-10-28T10:06:32;14.88;;;2.47;;
35558;SDS011;21661;50.794;-1.066;2022-10-28T10:09:01;19.75;;;3.42;;
35558;SDS011;21661;50.794;-1.066;2022-10-28T10:11:35;19.30;;;2.92;;
35558;SDS011;21661;50.794;-1.066;2022-10-28T10:14:08;18.92;;;3.17;;
35558;SDS011;21661;50.794;-1.066;2022-10-28T10:16:46;19.80;;;2.83;;
35558;SDS011;21661;50.794;-1.066;2022-10-28T10:19:15;22.20;;;3.20;;
35558;SDS011;21661;50.794;-1.066;2022-10-28T10:21:45;19.15;;;3.22;;
35558;SDS011;21661;50.794;-1.066;2022-10-28T10:29:33;19.45;;;3.33;;
35558;SDS011;21661;50.794;-1.066;2022-10-28T10:32:14;18.23;;;3.58;;
35558;SDS011;21661;50.794;-1.066;2022-10-28T10:37:21;20.55;;;3.20;;
35558;SDS011;21661;50.794;-1.066;2022-10-28T10:39:57;21.60;;;2.97;;
35558;SDS011;21661;50.794;-1.066;2022-10-28T10:42:35;13.65;;;2.90;;
35558;SDS011;21661;50.794;-1.066;2022-10-28T10:45:34;19.38;;;3.38;;
35558;SDS011;21661;50.794;-1.066;2022-10-28T10:48:12;17.58;;;3.50;;
35558;SDS011;21661;50.794;-1.066;2022-10-28T10:50:39;17.08;;;3.00;;
35558;SDS011;21661;50.794;-1.066;2022-10-28T10:53:17;13.75;;;2.85;;
35558;SDS011;21661;50.794;-1.066;2022-10-28T10:55:51;18.00;;;3.05;;
35558;SDS011;21661;50.794;-1.066;2022-10-28T10:58:19;17.73;;;3.58;;
35558;SDS011;21661;50.794;-1.066;2022-10-28T11:00:48;21.50;;;3.15;;
35558;SDS011;21661;50.794;-1.066;2022-10-28T11:03:23;17.30;;;2.65;;
35558;SDS011;21661;50.794;-1.066;2022-10-28T11:05:54;20.17;;;3.17;;
35558;SDS011;21661;50.794;-1.066;2022-10-28T11:08:25;13.20;;;2.60;;
35558;SDS011;21661;50.794;-1.066;2022-10-28T11:11:04;16.50;;;2.72;;
35558;SDS011;21661;50.794;-1.066;2022-10-28T11:13:33;19.52;;;3.10;;
35558;SDS011;21661;50.794;-1.066;2022-10-28T11:16:00;16.58;;;3.80;;
35558;SDS011;21661;50.794;-1.066;2022-10-28T11:18:27;17.92;;;2.63;;
35558;SDS011;21661;50.794;-1.066;2022-10-28T11:21:04;14.18;;;2.90;;
35558;SDS011;21661;50.794;-1.066;2022-10-28T11:23:56;14.60;;;3.28;;
35558;SDS011;21661;50.794;-1.066;2022-10-28T11:26:38;16.80;;;2.65;;
35558;SDS011;21661;50.794;-1.066;2022-10-28T11:29:13;13.90;;;2.47;;
35558;SDS011;21661;50.794;-1.066;2022-10-28T11:43:00;13.65;;;2.42;;
35558;SDS011;21661;50.794;-1.066;2022-10-28T11:46:00;15.68;;;2.30;;
35558;SDS011;21661;50.794;-1.066;2022-10-28T11:56:45;10.43;;;1.95;;
35558;SDS011;21661;50.794;-1.066;2022-10-28T12:10:29;15.18;;;2.22;;
35558;SDS011;21661;50.794;-1.066;2022-10-28T12:13:04;10.35;;;1.52;;
35558;SDS011;21661;50.794;-1.066;2022-10-28T12:23:54;8.40;;;1.40;;
35558;SDS011;21661;50.794;-1.066;2022-10-28T12:26:31;13.20;;;2.05;;
35558;SDS011;21661;50.794;-1.066;2022-10-28T12:29:20;8.75;;;1.13;;
35558;SDS011;21661;50.794;-1.066;2022-10-28T12:31:57;8.88;;;1.67;;
35558;SDS011;21661;50.794;-1.066;2022-10-28T12:34:29;8.07;;;1.50;;
35558;SDS011;21661;50.794;-1.066;2022-10-28T12:37:20;9.68;;;1.38;;
35558;SDS011;21661;50.794;-1.066;2022-10-28T12:40:06;11.20;;;1.42;;
35558;SDS011;21661;50.794;-1.066;2022-10-28T12:42:44;11.90;;;1.92;;
35558;SDS011;21661;50.794;-1.066;2022-10-28T12:45:19;7.32;;;1.80;;
35558;SDS011;21661;50.794;-1.066;2022-10-28T12:50:33;12.35;;;1.88;;
35558;SDS011;21661;50.794;-1.066;2022-10-28T12:53:15;11.18;;;1.60;;
35558;SDS011;21661;50.794;-1.066;2022-10-28T12:55:54;8.60;;;1.63;;
35558;SDS011;21661;50.794;-1.066;2022-10-28T12:58:26;9.15;;;1.20;;
35558;SDS011;21661;50.794;-1.066;2022-10-28T13:00:57;8.65;;;1.40;;
35558;SDS011;21661;50.794;-1.066;2022-10-28T13:03:53;7.28;;;1.65;;
35558;SDS011;21661;50.794;-1.066;2022-10-28T13:17:30;7.10;;;1.83;;
35558;SDS011;21661;50.794;-1.066;2022-10-28T13:20:16;12.05;;;1.50;;
35558;SDS011;21661;50.794;-1.066;2022-10-28T13:23:13;5.30;;;1.20;;
35558;SDS011;21661;50.794;-1.066;2022-10-28T13:28:23;4.53;;;1.27;;
35558;SDS011;21661;50.794;-1.066;2022-10-28T13:31:19;5.80;;;1.55;;
35558;SDS011;21661;50.794;-1.066;2022-10-28T13:34:06;8.73;;;0.98;;
35558;SDS011;21661;50.794;-1.066;2022-10-28T13:36:32;6.55;;;0.80;;
35558;SDS011;21661;50.794;-1.066;2022-10-28T13:39:06;5.00;;;1.00;;
35558;SDS011;21661;50.794;-1.066;2022-10-28T13:41:49;6.82;;;1.15;;
35558;SDS011;21661;50.794;-1.066;2022-10-28T13:52:37;9.05;;;1.30;;
35558;SDS011;21661;50.794;-1.066;2022-10-28T13:57:38;6.93;;;1.30;;
35558;SDS011;21661;50.794;-1.066;2022-10-28T14:02:47;8.98;;;1.63;;
35558;SDS011;21661;50.794;-1.066;2022-10-28T14:05:18;11.23;;;1.92;;
35558;SDS011;21661;50.794;-1.066;2022-10-28T14:07:55;9.15;;;1.70;;
35558;SDS011;21661;50.794;-1.066;2022-10-28T14:10:25;10.27;;;2.00;;
35558;SDS011;21661;50.794;-1.066;2022-10-28T14:15:25;12.48;;;1.77;;
35558;SDS011;21661;50.794;-1.066;2022-10-28T14:18:40;11.60;;;2.25;;
35558;SDS011;21661;50.794;-1.066;2022-10-28T14:33:38;11.30;;;1.85;;
35558;SDS011;21661;50.794;-1.066;2022-10-28T14:46:43;11.00;;;2.03;;
35558;SDS011;21661;50.794;-1.066;2022-10-28T14:49:35;14.77;;;2.17;;
35558;SDS011;21661;50.794;-1.066;2022-10-28T14:52:07;15.00;;;2.22;;
35558;SDS011;21661;50.794;-1.066;2022-10-28T14:57:13;10.50;;;1.80;;
35558;SDS011;21661;50.794;-1.066;2022-10-28T14:59:43;8.65;;;1.75;;
35558;SDS011;21661;50.794;-1.066;2022-10-28T15:02:11;9.85;;;2.63;;
35558;SDS011;21661;50.794;-1.066;2022-10-28T15:04:38;7.00;;;1.52;;
35558;SDS011;21661;50.794;-1.066;2022-10-28T15:07:06;6.13;;;1.50;;
35558;SDS011;21661;50.794;-1.066;2022-10-28T15:09:38;9.35;;;1.63;;
35558;SDS011;21661;50.794;-1.066;2022-10-28T15:12:05;13.60;;;1.60;;
35558;SDS011;21661;50.794;-1.066;2022-10-28T15:14:34;11.48;;;1.65;;
35558;SDS011;21661;50.794;-1.066;2022-10-28T15:19:43;8.98;;;1.48;;
35558;SDS011;21661;50.794;-1.066;2022-10-28T15:24:38;9.57;;;1.73;;
35558;SDS011;21661;50.794;-1.066;2022-10-28T15:27:04;8.52;;;1.80;;
35558;SDS011;21661;50.794;-1.066;2022-10-28T15:29:30;15.05;;;1.90;;
35558;SDS011;21661;50.794;-1.066;2022-10-28T15:34:41;14.93;;;2.17;;
35558;SDS011;21661;50.794;-1.066;2022-10-28T15:37:07;10.15;;;1.98;;
35558;SDS011;21661;50.794;-1.066;2022-10-28T15:39:34;18.83;;;2.15;;
35558;SDS011;21661;50.794;-1.066;2022-10-28T15:42:01;13.00;;;1.67;;
35558;SDS011;21661;50.794;-1.066;2022-10-28T15:44:35;12.35;;;1.70;;
35558;SDS011;21661;50.794;-1.066;2022-10-28T15:47:16;14.93;;;2.00;;
35558;SDS011;21661;50.794;-1.066;2022-10-28T15:52:40;15.68;;;2.38;;
35558;SDS011;21661;50.794;-1.066;2022-10-28T15:55:33;12.07;;;2.22;;
35558;SDS011;21661;50.794;-1.066;2022-10-28T15:57:59;14.00;;;2.60;;
35558;SDS011;21661;50.794;-1.066;2022-10-28T16:03:03;16.65;;;2.33;;
35558;SDS011;21661;50.794;-1.066;2022-10-28T16:10:42;15.93;;;1.77;;
35558;SDS011;21661;50.794;-1.066;2022-10-28T16:13:51;7.82;;;1.95;;
35558;SDS011;21661;50.794;-1.066;2022-10-28T16:16:04;7.50;;;1.60;;
35558;SDS011;21661;50.794;-1.066;2022-10-28T16:18:32;13.20;;;2.42;;
35558;SDS011;21661;50.794;-1.066;2022-10-28T16:21:04;15.10;;;3.15;;
35558;SDS011;21661;50.794;-1.066;2022-10-28T16:23:32;14.35;;;2.88;;
35558;SDS011;21661;50.794;-1.066;2022-10-28T16:26:02;14.63;;;2.88;;
35558;SDS011;21661;50.794;-1.066;2022-10-28T16:28:29;13.48;;;3.33;;
35558;SDS011;21661;50.794;-1.066;2022-10-28T16:30:56;15.07;;;2.28;;
35558;SDS011;21661;50.794;-1.066;2022-10-28T16:33:26;13.13;;;2.28;;
35558;SDS011;21661;50.794;-1.066;2022-10-28T16:35:57;15.85;;;2.60;;
35558;SDS011;21661;50.794;-1.066;2022-10-28T16:38:23;15.30;;;2.00;;
35558;SDS011;21661;50.794;-1.066;2022-10-28T16:40:49;12.85;;;2.20;;
35558;SDS011;21661;50.794;-1.066;2022-10-28T16:43:20;13.68;;;2.63;;
35558;SDS011;21661;50.794;-1.066;2022-10-28T16:45:47;11.25;;;2.13;;
35558;SDS011;21661;50.794;-1.066;2022-10-28T16:48:15;16.92;;;2.50;;
35558;SDS011;21661;50.794;-1.066;2022-10-28T16:50:43;15.45;;;2.55;;
35558;SDS011;21661;50.794;-1.066;2022-10-28T16:53:14;17.13;;;2.60;;
35558;SDS011;21661;50.794;-1.066;2022-10-28T16:55:40;13.93;;;2.72;;
35558;SDS011;21661;50.794;-1.066;2022-10-28T16:58:06;17.33;;;3.97;;
35558;SDS011;21661;50.794;-1.066;2022-10-28T17:00:31;18.98;;;4.05;;
35558;SDS011;21661;50.794;-1.066;2022-10-28T17:02:57;18.00;;;3.85;;
35558;SDS011;21661;50.794;-1.066;2022-10-28T17:05:24;18.08;;;3.83;;
35558;SDS011;21661;50.794;-1.066;2022-10-28T17:07:49;15.15;;;2.85;;
35558;SDS011;21661;50.794;-1.066;2022-10-28T17:10:15;18.40;;;3.15;;
35558;SDS011;21661;50.794;-1.066;2022-10-28T17:12:41;15.98;;;2.88;;
35558;SDS011;21661;50.794;-1.066;2022-10-28T17:15:07;17.23;;;2.60;;
35558;SDS011;21661;50.794;-1.066;2022-10-28T17:17:34;19.10;;;3.03;;
35558;SDS011;21661;50.794;-1.066;2022-10-28T17:19:59;13.02;;;2.95;;
35558;SDS011;21661;50.794;-1.066;2022-10-28T17:22:25;17.67;;;3.00;;
35558;SDS011;21661;50.794;-1.066;2022-10-28T17:24:51;14.95;;;2.38;;
35558;SDS011;21661;50.794;-1.066;2022-10-28T17:27:18;15.80;;;3.45;;
35558;SDS011;21661;50.794;-1.066;2022-10-28T17:29:43;15.50;;;3.60;;
35558;SDS011;21661;50.794;-1.066;2022-10-28T17:32:09;15.35;;;3.15;;
35558;SDS011;21661;50.794;-1.066;2022-10-28T17:34:35;20.30;;;5.20;;
35558;SDS011;21661;50.794;-1.066;2022-10-28T17:37:01;23.20;;;5.00;;
35558;SDS011;21661;50.794;-1.066;2022-10-28T17:39:26;22.77;;;4.80;;
35558;SDS011;21661;50.794;-1.066;2022-10-28T17:41:52;21.38;;;4.78;;
35558;SDS011;21661;50.794;-1.066;2022-10-28T17:44:18;20.40;;;5.63;;
35558;SDS011;21661;50.794;-1.066;2022-10-28T17:46:44;19.98;;;5.70;;
35558;SDS011;21661;50.794;-1.066;2022-10-28T17:49:11;15.98;;;3.75;;
35558;SDS011;21661;50.794;-1.066;2022-10-28T17:51:37;14.45;;;3.67;;
35558;SDS011;21661;50.794;-1.066;2022-10-28T17:54:02;17.70;;;3.05;;
35558;SDS011;21661;50.794;-1.066;2022-10-28T17:56:30;15.85;;;3.17;;